sensor_id;sensor_type;location;lat;lon;timestamp;pressure;altitude;pressure_sealevel;temperature
17142;BMP180;32805;53.556;9.944;2023-06-14T00:00:05;101674.00;;;17.70
17142;BMP180;32805;53.556;9.944;2023-06-14T00:02:34;101676.00;;;17.70
17142;BMP180;32805;53.556;9.944;2023-06-14T00:05:02;101680.00;;;17.70
17142;BMP180;32805;53.556;9.944;2023-06-14T00:07:34;101678.00;;;17.60
17142;BMP180;32805;53.556;9.944;2023-06-14T00:10:02;101694.00;;;17.60
17142;BMP180;32805;53.556;9.944;2023-06-14T00:12:31;101698.00;;;17.60
17142;BMP180;32805;53.556;9.944;2023-06-14T00:15:00;101683.00;;;17.60
17142;BMP180;32805;53.556;9.944;2023-06-14T00:17:28;101691.00;;;17.50
17142;BMP180;32805;53.556;9.944;2023-06-14T00:19:58;101685.00;;;17.60
17142;BMP180;32805;53.556;9.944;2023-06-14T00:22:25;101690.00;;;17.60
17142;BMP180;32805;53.556;9.944;2023-06-14T00:24:55;101681.00;;;17.60
17142;BMP180;32805;53.556;9.944;2023-06-14T00:27:22;101692.00;;;17.50
17142;BMP180;32805;53.556;9.944;2023-06-14T00:29:51;101690.00;;;17.40
17142;BMP180;32805;53.556;9.944;2023-06-14T00:32:20;101699.00;;;17.40
17142;BMP180;32805;53.556;9.944;2023-06-14T00:34:55;101703.00;;;17.40
17142;BMP180;32805;53.556;9.944;2023-06-14T00:37:22;101699.00;;;17.30
17142;BMP180;32805;53.556;9.944;2023-06-14T00:39:50;101707.00;;;17.30
17142;BMP180;32805;53.556;9.944;2023-06-14T00:42:24;101699.00;;;17.20
17142;BMP180;32805;53.556;9.944;2023-06-14T00:44:52;101701.00;;;17.20
17142;BMP180;32805;53.556;9.944;2023-06-14T00:47:23;101712.00;;;17.20
17142;BMP180;32805;53.556;9.944;2023-06-14T00:49:52;101711.00;;;17.10
17142;BMP180;32805;53.556;9.944;2023-06-14T00:52:20;101709.00;;;17.10
17142;BMP180;32805;53.556;9.944;2023-06-14T00:54:48;101708.00;;;17.10
17142;BMP180;32805;53.556;9.944;2023-06-14T00:57:16;101715.00;;;17.10
17142;BMP180;32805;53.556;9.944;2023-06-14T00:59:47;101717.00;;;17.20
17142;BMP180;32805;53.556;9.944;2023-06-14T01:02:16;101714.00;;;17.20
17142;BMP180;32805;53.556;9.944;2023-06-14T01:04:47;101710.00;;;17.10
17142;BMP180;32805;53.556;9.944;2023-06-14T01:07:23;101711.00;;;17.10
17142;BMP180;32805;53.556;9.944;2023-06-14T01:10:02;101720.00;;;17.00
17142;BMP180;32805;53.556;9.944;2023-06-14T01:12:37;101720.00;;;17.00
17142;BMP180;32805;53.556;9.944;2023-06-14T01:15:07;101715.00;;;17.00
17142;BMP180;32805;53.556;9.944;2023-06-14T01:17:36;101713.00;;;16.90
17142;BMP180;32805;53.556;9.944;2023-06-14T01:20:12;101721.00;;;16.90
17142;BMP180;32805;53.556;9.944;2023-06-14T01:22:50;101723.00;;;16.90
17142;BMP180;32805;53.556;9.944;2023-06-14T01:25:20;101722.00;;;16.90
17142;BMP180;32805;53.556;9.944;2023-06-14T01:27:50;101725.00;;;16.80
17142;BMP180;32805;53.556;9.944;2023-06-14T01:30:20;101732.00;;;16.80
17142;BMP180;32805;53.556;9.944;2023-06-14T01:32:48;101726.00;;;16.80
17142;BMP180;32805;53.556;9.944;2023-06-14T01:35:17;101727.00;;;16.70
17142;BMP180;32805;53.556;9.944;2023-06-14T01:37:47;101726.00;;;16.70
17142;BMP180;32805;53.556;9.944;2023-06-14T01:40:17;101726.00;;;16.70
17142;BMP180;32805;53.556;9.944;2023-06-14T01:42:46;101723.00;;;16.70
17142;BMP180;32805;53.556;9.944;2023-06-14T01:45:15;101724.00;;;16.70
17142;BMP180;32805;53.556;9.944;2023-06-14T01:47:44;101720.00;;;16.70
17142;BMP180;32805;53.556;9.944;2023-06-14T01:50:14;101723.00;;;16.70
17142;BMP180;32805;53.556;9.944;2023-06-14T01:52:44;101726.00;;;16.60
17142;BMP180;32805;53.556;9.944;2023-06-14T01:55:11;101724.00;;;16.50
17142;BMP180;32805;53.556;9.944;2023-06-14T01:57:40;101725.00;;;16.50
17142;BMP180;32805;53.556;9.944;2023-06-14T02:00:10;101726.00;;;16.40
17142;BMP180;32805;53.556;9.944;2023-06-14T02:02:39;101721.00;;;16.40
17142;BMP180;32805;53.556;9.944;2023-06-14T02:05:07;101731.00;;;16.40
17142;BMP180;32805;53.556;9.944;2023-06-14T02:07:35;101721.00;;;16.40
17142;BMP180;32805;53.556;9.944;2023-06-14T02:10:04;101726.00;;;16.30
17142;BMP180;32805;53.556;9.944;2023-06-14T02:12:32;101723.00;;;16.30
17142;BMP180;32805;53.556;9.944;2023-06-14T02:15:00;101730.00;;;16.30
17142;BMP180;32805;53.556;9.944;2023-06-14T02:17:30;101732.00;;;16.30
17142;BMP180;32805;53.556;9.944;2023-06-14T02:19:58;101736.00;;;16.30
17142;BMP180;32805;53.556;9.944;2023-06-14T02:22:26;101729.00;;;16.30
17142;BMP180;32805;53.556;9.944;2023-06-14T02:24:54;101731.00;;;16.30
17142;BMP180;32805;53.556;9.944;2023-06-14T02:27:28;101736.00;;;16.30
17142;BMP180;32805;53.556;9.944;2023-06-14T02:29:55;101734.00;;;16.30
17142;BMP180;32805;53.556;9.944;2023-06-14T02:32:25;101736.00;;;16.20
17142;BMP180;32805;53.556;9.944;2023-06-14T02:34:54;101730.00;;;16.20
17142;BMP180;32805;53.556;9.944;2023-06-14T02:37:21;101730.00;;;16.10
17142;BMP180;32805;53.556;9.944;2023-06-14T02:39:49;101734.00;;;16.20
17142;BMP180;32805;53.556;9.944;2023-06-14T02:42:16;101735.00;;;16.10
17142;BMP180;32805;53.556;9.944;2023-06-14T02:44:44;101737.00;;;16.10
17142;BMP180;32805;53.556;9.944;2023-06-14T02:47:17;101724.00;;;16.00
17142;BMP180;32805;53.556;9.944;2023-06-14T02:49:46;101737.00;;;16.10
17142;BMP180;32805;53.556;9.944;2023-06-14T02:52:14;101736.00;;;16.10
17142;BMP180;32805;53.556;9.944;2023-06-14T02:54:42;101738.00;;;16.00
17142;BMP180;32805;53.556;9.944;2023-06-14T02:57:10;101736.00;;;16.00
17142;BMP180;32805;53.556;9.944;2023-06-14T02:59:39;101742.00;;;16.00
17142;BMP180;32805;53.556;9.944;2023-06-14T03:02:07;101745.00;;;16.00
17142;BMP180;32805;53.556;9.944;2023-06-14T03:04:35;101737.00;;;16.00
17142;BMP180;32805;53.556;9.944;2023-06-14T03:07:10;101744.00;;;16.00
17142;BMP180;32805;53.556;9.944;2023-06-14T03:09:41;101748.00;;;16.00
17142;BMP180;32805;53.556;9.944;2023-06-14T03:12:11;101743.00;;;16.00
17142;BMP180;32805;53.556;9.944;2023-06-14T03:14:39;101741.00;;;15.90
17142;BMP180;32805;53.556;9.944;2023-06-14T03:17:07;101744.00;;;15.90
17142;BMP180;32805;53.556;9.944;2023-06-14T03:19:38;101741.00;;;16.00
17142;BMP180;32805;53.556;9.944;2023-06-14T03:22:07;101749.00;;;15.90
17142;BMP180;32805;53.556;9.944;2023-06-14T03:24:40;101750.00;;;15.90
17142;BMP180;32805;53.556;9.944;2023-06-14T03:27:11;101755.00;;;15.90
17142;BMP180;32805;53.556;9.944;2023-06-14T03:29:41;101756.00;;;15.90
17142;BMP180;32805;53.556;9.944;2023-06-14T03:32:10;101747.00;;;15.90
17142;BMP180;32805;53.556;9.944;2023-06-14T03:34:42;101764.00;;;15.90
17142;BMP180;32805;53.556;9.944;2023-06-14T03:37:16;101760.00;;;15.90
17142;BMP180;32805;53.556;9.944;2023-06-14T03:39:47;101755.00;;;15.90
17142;BMP180;32805;53.556;9.944;2023-06-14T03:42:19;101751.00;;;16.00
17142;BMP180;32805;53.556;9.944;2023-06-14T03:44:47;101773.00;;;16.00
17142;BMP180;32805;53.556;9.944;2023-06-14T03:47:17;101765.00;;;16.00
17142;BMP180;32805;53.556;9.944;2023-06-14T03:49:45;101769.00;;;15.90
17142;BMP180;32805;53.556;9.944;2023-06-14T03:52:13;101765.00;;;15.90
17142;BMP180;32805;53.556;9.944;2023-06-14T03:54:44;101775.00;;;15.90
17142;BMP180;32805;53.556;9.944;2023-06-14T03:57:18;101782.00;;;15.90
17142;BMP180;32805;53.556;9.944;2023-06-14T03:59:48;101778.00;;;15.90
17142;BMP180;32805;53.556;9.944;2023-06-14T04:02:16;101780.00;;;15.90
17142;BMP180;32805;53.556;9.944;2023-06-14T04:04:44;101796.00;;;15.90
17142;BMP180;32805;53.556;9.944;2023-06-14T04:07:12;101794.00;;;15.90
17142;BMP180;32805;53.556;9.944;2023-06-14T04:09:40;101792.00;;;16.00
17142;BMP180;32805;53.556;9.944;2023-06-14T04:12:09;101794.00;;;16.00
17142;BMP180;32805;53.556;9.944;2023-06-14T04:14:39;101792.00;;;16.00
17142;BMP180;32805;53.556;9.944;2023-06-14T04:17:09;101810.00;;;16.00
17142;BMP180;32805;53.556;9.944;2023-06-14T04:19:37;101810.00;;;16.00
17142;BMP180;32805;53.556;9.944;2023-06-14T04:22:05;101812.00;;;16.00
17142;BMP180;32805;53.556;9.944;2023-06-14T04:24:35;101808.00;;;16.00
17142;BMP180;32805;53.556;9.944;2023-06-14T04:27:04;101814.00;;;16.00
17142;BMP180;32805;53.556;9.944;2023-06-14T04:29:34;101802.00;;;16.00
17142;BMP180;32805;53.556;9.944;2023-06-14T04:32:07;101809.00;;;16.10
17142;BMP180;32805;53.556;9.944;2023-06-14T04:34:37;101818.00;;;16.10
17142;BMP180;32805;53.556;9.944;2023-06-14T04:37:07;101808.00;;;16.10
17142;BMP180;32805;53.556;9.944;2023-06-14T04:39:37;101815.00;;;16.10
17142;BMP180;32805;53.556;9.944;2023-06-14T04:42:05;101812.00;;;16.10
17142;BMP180;32805;53.556;9.944;2023-06-14T04:44:34;101816.00;;;16.20
17142;BMP180;32805;53.556;9.944;2023-06-14T04:47:04;101812.00;;;16.20
17142;BMP180;32805;53.556;9.944;2023-06-14T04:49:34;101812.00;;;16.20
17142;BMP180;32805;53.556;9.944;2023-06-14T04:52:04;101803.00;;;16.20
17142;BMP180;32805;53.556;9.944;2023-06-14T04:54:35;101812.00;;;16.20
17142;BMP180;32805;53.556;9.944;2023-06-14T04:57:07;101808.00;;;16.30
17142;BMP180;32805;53.556;9.944;2023-06-14T04:59:35;101806.00;;;16.30
17142;BMP180;32805;53.556;9.944;2023-06-14T05:02:03;101815.00;;;16.40
17142;BMP180;32805;53.556;9.944;2023-06-14T05:04:31;101809.00;;;16.40
17142;BMP180;32805;53.556;9.944;2023-06-14T05:07:01;101810.00;;;16.50
17142;BMP180;32805;53.556;9.944;2023-06-14T05:09:29;101805.00;;;16.40
17142;BMP180;32805;53.556;9.944;2023-06-14T05:11:56;101800.00;;;16.40
17142;BMP180;32805;53.556;9.944;2023-06-14T05:14:26;101805.00;;;16.40
17142;BMP180;32805;53.556;9.944;2023-06-14T05:16:56;101807.00;;;16.50
17142;BMP180;32805;53.556;9.944;2023-06-14T05:19:23;101812.00;;;16.50
17142;BMP180;32805;53.556;9.944;2023-06-14T05:21:51;101806.00;;;16.60
17142;BMP180;32805;53.556;9.944;2023-06-14T05:24:21;101805.00;;;16.50
17142;BMP180;32805;53.556;9.944;2023-06-14T05:26:49;101804.00;;;16.60
17142;BMP180;32805;53.556;9.944;2023-06-14T05:29:16;101812.00;;;16.60
17142;BMP180;32805;53.556;9.944;2023-06-14T05:31:44;101813.00;;;16.70
17142;BMP180;32805;53.556;9.944;2023-06-14T05:34:11;101818.00;;;16.70
17142;BMP180;32805;53.556;9.944;2023-06-14T05:36:39;101811.00;;;16.80
17142;BMP180;32805;53.556;9.944;2023-06-14T05:39:07;101816.00;;;16.90
17142;BMP180;32805;53.556;9.944;2023-06-14T05:41:36;101811.00;;;16.90
17142;BMP180;32805;53.556;9.944;2023-06-14T05:44:04;101810.00;;;17.00
17142;BMP180;32805;53.556;9.944;2023-06-14T05:46:31;101807.00;;;17.00
17142;BMP180;32805;53.556;9.944;2023-06-14T05:48:59;101808.00;;;17.10
17142;BMP180;32805;53.556;9.944;2023-06-14T05:51:27;101799.00;;;17.00
17142;BMP180;32805;53.556;9.944;2023-06-14T05:53:55;101809.00;;;17.10
17142;BMP180;32805;53.556;9.944;2023-06-14T05:56:23;101806.00;;;17.20
17142;BMP180;32805;53.556;9.944;2023-06-14T05:58:53;101812.00;;;17.30
17142;BMP180;32805;53.556;9.944;2023-06-14T06:01:21;101823.00;;;17.30
17142;BMP180;32805;53.556;9.944;2023-06-14T06:03:48;101823.00;;;17.30
17142;BMP180;32805;53.556;9.944;2023-06-14T06:06:19;101824.00;;;17.40
17142;BMP180;32805;53.556;9.944;2023-06-14T06:08:50;101822.00;;;17.50
17142;BMP180;32805;53.556;9.944;2023-06-14T06:11:18;101824.00;;;17.60
17142;BMP180;32805;53.556;9.944;2023-06-14T06:13:45;101816.00;;;17.70
17142;BMP180;32805;53.556;9.944;2023-06-14T06:16:14;101827.00;;;17.80
17142;BMP180;32805;53.556;9.944;2023-06-14T06:18:42;101825.00;;;17.90
17142;BMP180;32805;53.556;9.944;2023-06-14T06:21:11;101831.00;;;17.90
17142;BMP180;32805;53.556;9.944;2023-06-14T06:23:55;101834.00;;;17.90
17142;BMP180;32805;53.556;9.944;2023-06-14T06:26:23;101830.00;;;17.90
17142;BMP180;32805;53.556;9.944;2023-06-14T06:28:53;101833.00;;;17.90
17142;BMP180;32805;53.556;9.944;2023-06-14T06:31:23;101835.00;;;18.00
17142;BMP180;32805;53.556;9.944;2023-06-14T06:33:52;101829.00;;;18.00
17142;BMP180;32805;53.556;9.944;2023-06-14T06:36:20;101837.00;;;18.10
17142;BMP180;32805;53.556;9.944;2023-06-14T06:38:48;101826.00;;;18.10
17142;BMP180;32805;53.556;9.944;2023-06-14T06:41:16;101830.00;;;18.10
17142;BMP180;32805;53.556;9.944;2023-06-14T06:43:44;101844.00;;;18.10
17142;BMP180;32805;53.556;9.944;2023-06-14T06:46:15;101844.00;;;18.10
17142;BMP180;32805;53.556;9.944;2023-06-14T06:48:46;101841.00;;;18.10
17142;BMP180;32805;53.556;9.944;2023-06-14T06:51:14;101837.00;;;18.10
17142;BMP180;32805;53.556;9.944;2023-06-14T06:53:42;101848.00;;;18.20
17142;BMP180;32805;53.556;9.944;2023-06-14T06:56:15;101853.00;;;18.30
17142;BMP180;32805;53.556;9.944;2023-06-14T06:58:43;101853.00;;;18.40
17142;BMP180;32805;53.556;9.944;2023-06-14T07:01:11;101858.00;;;18.40
17142;BMP180;32805;53.556;9.944;2023-06-14T07:03:40;101857.00;;;18.40
17142;BMP180;32805;53.556;9.944;2023-06-14T07:06:09;101834.00;;;18.50
17142;BMP180;32805;53.556;9.944;2023-06-14T07:08:37;101870.00;;;18.60
17142;BMP180;32805;53.556;9.944;2023-06-14T07:11:08;101859.00;;;18.60
17142;BMP180;32805;53.556;9.944;2023-06-14T07:13:35;101861.00;;;18.70
17142;BMP180;32805;53.556;9.944;2023-06-14T07:16:04;101856.00;;;18.70
17142;BMP180;32805;53.556;9.944;2023-06-14T07:18:32;101858.00;;;18.70
17142;BMP180;32805;53.556;9.944;2023-06-14T07:20:59;101870.00;;;18.80
17142;BMP180;32805;53.556;9.944;2023-06-14T07:23:29;101857.00;;;18.80
17142;BMP180;32805;53.556;9.944;2023-06-14T07:25:56;101862.00;;;18.80
17142;BMP180;32805;53.556;9.944;2023-06-14T07:28:24;101862.00;;;18.90
17142;BMP180;32805;53.556;9.944;2023-06-14T07:30:52;101861.00;;;19.10
17142;BMP180;32805;53.556;9.944;2023-06-14T07:33:19;101861.00;;;19.10
17142;BMP180;32805;53.556;9.944;2023-06-14T07:35:47;101853.00;;;19.10
17142;BMP180;32805;53.556;9.944;2023-06-14T07:38:15;101850.00;;;19.20
17142;BMP180;32805;53.556;9.944;2023-06-14T07:40:44;101848.00;;;19.20
17142;BMP180;32805;53.556;9.944;2023-06-14T07:43:12;101857.00;;;19.30
17142;BMP180;32805;53.556;9.944;2023-06-14T07:45:40;101854.00;;;19.30
17142;BMP180;32805;53.556;9.944;2023-06-14T07:48:28;101861.00;;;19.30
17142;BMP180;32805;53.556;9.944;2023-06-14T07:50:56;101838.00;;;19.30
17142;BMP180;32805;53.556;9.944;2023-06-14T07:53:24;101851.00;;;19.40
17142;BMP180;32805;53.556;9.944;2023-06-14T07:55:53;101857.00;;;19.50
17142;BMP180;32805;53.556;9.944;2023-06-14T07:58:21;101858.00;;;19.70
17142;BMP180;32805;53.556;9.944;2023-06-14T08:00:49;101860.00;;;19.70
17142;BMP180;32805;53.556;9.944;2023-06-14T08:03:17;101858.00;;;19.70
17142;BMP180;32805;53.556;9.944;2023-06-14T08:05:46;101862.00;;;19.70
17142;BMP180;32805;53.556;9.944;2023-06-14T08:08:13;101854.00;;;19.70
17142;BMP180;32805;53.556;9.944;2023-06-14T08:10:41;101853.00;;;19.80
17142;BMP180;32805;53.556;9.944;2023-06-14T08:13:10;101843.00;;;19.90
17142;BMP180;32805;53.556;9.944;2023-06-14T08:15:38;101849.00;;;20.00
17142;BMP180;32805;53.556;9.944;2023-06-14T08:18:06;101840.00;;;20.00
17142;BMP180;32805;53.556;9.944;2023-06-14T08:20:34;101840.00;;;20.00
17142;BMP180;32805;53.556;9.944;2023-06-14T08:23:02;101839.00;;;20.00
17142;BMP180;32805;53.556;9.944;2023-06-14T08:25:30;101845.00;;;20.00
17142;BMP180;32805;53.556;9.944;2023-06-14T08:27:58;101837.00;;;20.10
17142;BMP180;32805;53.556;9.944;2023-06-14T08:30:27;101829.00;;;20.20
17142;BMP180;32805;53.556;9.944;2023-06-14T08:32:55;101845.00;;;20.30
17142;BMP180;32805;53.556;9.944;2023-06-14T08:35:41;101841.00;;;20.30
17142;BMP180;32805;53.556;9.944;2023-06-14T08:38:10;101840.00;;;20.30
17142;BMP180;32805;53.556;9.944;2023-06-14T08:40:39;101847.00;;;20.30
17142;BMP180;32805;53.556;9.944;2023-06-14T08:43:09;101843.00;;;20.20
17142;BMP180;32805;53.556;9.944;2023-06-14T08:45:38;101848.00;;;20.30
17142;BMP180;32805;53.556;9.944;2023-06-14T08:48:07;101845.00;;;20.40
17142;BMP180;32805;53.556;9.944;2023-06-14T08:50:36;101853.00;;;20.50
17142;BMP180;32805;53.556;9.944;2023-06-14T08:53:09;101849.00;;;20.50
17142;BMP180;32805;53.556;9.944;2023-06-14T08:55:40;101858.00;;;20.60
17142;BMP180;32805;53.556;9.944;2023-06-14T08:58:09;101852.00;;;20.70
17142;BMP180;32805;53.556;9.944;2023-06-14T09:00:43;101859.00;;;20.80
17142;BMP180;32805;53.556;9.944;2023-06-14T09:03:11;101856.00;;;20.90
17142;BMP180;32805;53.556;9.944;2023-06-14T09:05:41;101852.00;;;21.00
17142;BMP180;32805;53.556;9.944;2023-06-14T09:08:10;101852.00;;;21.10
17142;BMP180;32805;53.556;9.944;2023-06-14T09:10:39;101848.00;;;21.30
17142;BMP180;32805;53.556;9.944;2023-06-14T09:13:07;101843.00;;;21.30
17142;BMP180;32805;53.556;9.944;2023-06-14T09:15:35;101841.00;;;21.40
17142;BMP180;32805;53.556;9.944;2023-06-14T09:18:04;101840.00;;;21.50
17142;BMP180;32805;53.556;9.944;2023-06-14T09:20:33;101835.00;;;21.50
17142;BMP180;32805;53.556;9.944;2023-06-14T09:23:01;101836.00;;;21.60
17142;BMP180;32805;53.556;9.944;2023-06-14T09:25:31;101840.00;;;21.80
17142;BMP180;32805;53.556;9.944;2023-06-14T09:28:07;101842.00;;;22.00
17142;BMP180;32805;53.556;9.944;2023-06-14T09:30:36;101839.00;;;21.90
17142;BMP180;32805;53.556;9.944;2023-06-14T09:33:06;101837.00;;;22.00
17142;BMP180;32805;53.556;9.944;2023-06-14T09:35:35;101843.00;;;21.80
17142;BMP180;32805;53.556;9.944;2023-06-14T09:38:03;101853.00;;;21.80
17142;BMP180;32805;53.556;9.944;2023-06-14T09:40:34;101839.00;;;21.90
17142;BMP180;32805;53.556;9.944;2023-06-14T09:43:04;101850.00;;;21.90
17142;BMP180;32805;53.556;9.944;2023-06-14T09:45:33;101830.00;;;22.00
17142;BMP180;32805;53.556;9.944;2023-06-14T09:48:01;101835.00;;;21.90
17142;BMP180;32805;53.556;9.944;2023-06-14T09:50:35;101844.00;;;22.00
17142;BMP180;32805;53.556;9.944;2023-06-14T09:53:06;101837.00;;;21.80
17142;BMP180;32805;53.556;9.944;2023-06-14T09:55:35;101851.00;;;21.80
17142;BMP180;32805;53.556;9.944;2023-06-14T09:58:05;101844.00;;;21.80
17142;BMP180;32805;53.556;9.944;2023-06-14T10:00:34;101840.00;;;21.80
17142;BMP180;32805;53.556;9.944;2023-06-14T10:03:06;101848.00;;;21.70
17142;BMP180;32805;53.556;9.944;2023-06-14T10:05:43;101836.00;;;21.70
17142;BMP180;32805;53.556;9.944;2023-06-14T10:08:14;101837.00;;;21.80
17142;BMP180;32805;53.556;9.944;2023-06-14T10:10:43;101823.00;;;22.00
17142;BMP180;32805;53.556;9.944;2023-06-14T10:13:12;101829.00;;;22.20
17142;BMP180;32805;53.556;9.944;2023-06-14T10:15:45;101843.00;;;22.30
17142;BMP180;32805;53.556;9.944;2023-06-14T10:18:22;101849.00;;;22.20
17142;BMP180;32805;53.556;9.944;2023-06-14T10:21:00;101843.00;;;22.10
17142;BMP180;32805;53.556;9.944;2023-06-14T10:23:33;101841.00;;;22.00
17142;BMP180;32805;53.556;9.944;2023-06-14T10:26:02;101844.00;;;22.20
17142;BMP180;32805;53.556;9.944;2023-06-14T10:28:30;101825.00;;;22.50
17142;BMP180;32805;53.556;9.944;2023-06-14T10:31:05;101831.00;;;22.80
17142;BMP180;32805;53.556;9.944;2023-06-14T10:33:34;101832.00;;;23.10
17142;BMP180;32805;53.556;9.944;2023-06-14T10:36:27;101829.00;;;23.40
17142;BMP180;32805;53.556;9.944;2023-06-14T10:38:58;101830.00;;;23.40
17142;BMP180;32805;53.556;9.944;2023-06-14T10:41:27;101823.00;;;23.50
17142;BMP180;32805;53.556;9.944;2023-06-14T10:46:56;101819.00;;;23.60
17142;BMP180;32805;53.556;9.944;2023-06-14T10:49:37;101818.00;;;23.30
17142;BMP180;32805;53.556;9.944;2023-06-14T10:52:09;101819.00;;;23.20
17142;BMP180;32805;53.556;9.944;2023-06-14T10:55:02;101819.00;;;23.30
17142;BMP180;32805;53.556;9.944;2023-06-14T10:57:30;101819.00;;;23.50
17142;BMP180;32805;53.556;9.944;2023-06-14T11:00:12;101807.00;;;23.60
17142;BMP180;32805;53.556;9.944;2023-06-14T11:02:51;101808.00;;;23.90
17142;BMP180;32805;53.556;9.944;2023-06-14T11:05:24;101808.00;;;24.10
17142;BMP180;32805;53.556;9.944;2023-06-14T11:08:18;101809.00;;;24.00
17142;BMP180;32805;53.556;9.944;2023-06-14T11:10:52;101809.00;;;24.10
17142;BMP180;32805;53.556;9.944;2023-06-14T11:13:24;101805.00;;;24.40
17142;BMP180;32805;53.556;9.944;2023-06-14T11:15:53;101802.00;;;24.30
17142;BMP180;32805;53.556;9.944;2023-06-14T11:18:23;101803.00;;;24.20
17142;BMP180;32805;53.556;9.944;2023-06-14T11:20:51;101803.00;;;23.90
17142;BMP180;32805;53.556;9.944;2023-06-14T11:23:21;101799.00;;;23.70
17142;BMP180;32805;53.556;9.944;2023-06-14T11:25:50;101792.00;;;23.80
17142;BMP180;32805;53.556;9.944;2023-06-14T11:28:18;101789.00;;;23.80
17142;BMP180;32805;53.556;9.944;2023-06-14T11:30:48;101789.00;;;24.00
17142;BMP180;32805;53.556;9.944;2023-06-14T11:33:18;101783.00;;;23.90
17142;BMP180;32805;53.556;9.944;2023-06-14T11:35:46;101785.00;;;23.70
17142;BMP180;32805;53.556;9.944;2023-06-14T11:38:14;101785.00;;;23.50
17142;BMP180;32805;53.556;9.944;2023-06-14T11:40:43;101791.00;;;23.70
17142;BMP180;32805;53.556;9.944;2023-06-14T11:43:11;101782.00;;;23.60
17142;BMP180;32805;53.556;9.944;2023-06-14T11:45:39;101783.00;;;23.70
17142;BMP180;32805;53.556;9.944;2023-06-14T11:48:07;101783.00;;;24.10
17142;BMP180;32805;53.556;9.944;2023-06-14T11:50:37;101783.00;;;24.30
17142;BMP180;32805;53.556;9.944;2023-06-14T11:53:05;101778.00;;;24.70
17142;BMP180;32805;53.556;9.944;2023-06-14T11:55:36;101770.00;;;24.80
17142;BMP180;32805;53.556;9.944;2023-06-14T11:58:06;101776.00;;;24.60
17142;BMP180;32805;53.556;9.944;2023-06-14T12:00:35;101782.00;;;24.40
17142;BMP180;32805;53.556;9.944;2023-06-14T12:03:03;101771.00;;;24.20
17142;BMP180;32805;53.556;9.944;2023-06-14T12:05:33;101780.00;;;24.10
17142;BMP180;32805;53.556;9.944;2023-06-14T12:08:02;101765.00;;;24.10
17142;BMP180;32805;53.556;9.944;2023-06-14T12:10:39;101772.00;;;24.20
17142;BMP180;32805;53.556;9.944;2023-06-14T12:13:08;101766.00;;;24.40
17142;BMP180;32805;53.556;9.944;2023-06-14T12:15:36;101751.00;;;24.40
17142;BMP180;32805;53.556;9.944;2023-06-14T12:18:05;101750.00;;;24.60
17142;BMP180;32805;53.556;9.944;2023-06-14T12:20:34;101748.00;;;25.00
17142;BMP180;32805;53.556;9.944;2023-06-14T12:23:03;101752.00;;;25.00
17142;BMP180;32805;53.556;9.944;2023-06-14T12:25:32;101751.00;;;24.60
17142;BMP180;32805;53.556;9.944;2023-06-14T12:28:04;101760.00;;;24.30
17142;BMP180;32805;53.556;9.944;2023-06-14T12:30:35;101763.00;;;24.10
17142;BMP180;32805;53.556;9.944;2023-06-14T12:33:04;101756.00;;;24.00
17142;BMP180;32805;53.556;9.944;2023-06-14T12:35:33;101758.00;;;24.30
17142;BMP180;32805;53.556;9.944;2023-06-14T12:38:01;101757.00;;;24.60
17142;BMP180;32805;53.556;9.944;2023-06-14T12:40:30;101756.00;;;24.60
17142;BMP180;32805;53.556;9.944;2023-06-14T12:42:58;101753.00;;;24.90
17142;BMP180;32805;53.556;9.944;2023-06-14T12:45:26;101753.00;;;25.10
17142;BMP180;32805;53.556;9.944;2023-06-14T12:47:55;101757.00;;;25.20
17142;BMP180;32805;53.556;9.944;2023-06-14T12:50:22;101746.00;;;25.40
17142;BMP180;32805;53.556;9.944;2023-06-14T12:52:52;101747.00;;;25.50
17142;BMP180;32805;53.556;9.944;2023-06-14T12:55:20;101743.00;;;25.10
17142;BMP180;32805;53.556;9.944;2023-06-14T12:57:47;101742.00;;;24.90
17142;BMP180;32805;53.556;9.944;2023-06-14T13:00:17;101744.00;;;24.80
17142;BMP180;32805;53.556;9.944;2023-06-14T13:02:45;101736.00;;;24.90
17142;BMP180;32805;53.556;9.944;2023-06-14T13:05:14;101738.00;;;25.20
17142;BMP180;32805;53.556;9.944;2023-06-14T13:07:42;101742.00;;;25.40
17142;BMP180;32805;53.556;9.944;2023-06-14T13:10:10;101734.00;;;25.40
17142;BMP180;32805;53.556;9.944;2023-06-14T13:12:38;101739.00;;;25.70
17142;BMP180;32805;53.556;9.944;2023-06-14T13:15:07;101727.00;;;25.80
17142;BMP180;32805;53.556;9.944;2023-06-14T13:17:35;101737.00;;;25.90
17142;BMP180;32805;53.556;9.944;2023-06-14T13:20:05;101730.00;;;25.90
17142;BMP180;32805;53.556;9.944;2023-06-14T13:22:35;101738.00;;;25.90
17142;BMP180;32805;53.556;9.944;2023-06-14T13:25:03;101736.00;;;26.00
17142;BMP180;32805;53.556;9.944;2023-06-14T13:27:31;101733.00;;;25.90
17142;BMP180;32805;53.556;9.944;2023-06-14T13:29:59;101740.00;;;25.90
17142;BMP180;32805;53.556;9.944;2023-06-14T13:32:27;101724.00;;;25.70
17142;BMP180;32805;53.556;9.944;2023-06-14T13:34:55;101736.00;;;25.60
17142;BMP180;32805;53.556;9.944;2023-06-14T13:37:23;101730.00;;;25.90
17142;BMP180;32805;53.556;9.944;2023-06-14T13:39:52;101718.00;;;26.00
17142;BMP180;32805;53.556;9.944;2023-06-14T13:42:20;101716.00;;;25.90
17142;BMP180;32805;53.556;9.944;2023-06-14T13:44:48;101734.00;;;26.10
17142;BMP180;32805;53.556;9.944;2023-06-14T13:47:17;101723.00;;;26.00
17142;BMP180;32805;53.556;9.944;2023-06-14T13:49:45;101731.00;;;25.70
17142;BMP180;32805;53.556;9.944;2023-06-14T13:52:13;101730.00;;;25.40
17142;BMP180;32805;53.556;9.944;2023-06-14T13:54:41;101733.00;;;25.30
17142;BMP180;32805;53.556;9.944;2023-06-14T13:57:11;101726.00;;;25.30
17142;BMP180;32805;53.556;9.944;2023-06-14T13:59:40;101728.00;;;25.10
17142;BMP180;32805;53.556;9.944;2023-06-14T14:02:07;101714.00;;;25.30
17142;BMP180;32805;53.556;9.944;2023-06-14T14:04:35;101717.00;;;25.50
17142;BMP180;32805;53.556;9.944;2023-06-14T14:07:04;101710.00;;;25.90
17142;BMP180;32805;53.556;9.944;2023-06-14T14:09:32;101704.00;;;26.10
17142;BMP180;32805;53.556;9.944;2023-06-14T14:12:01;101705.00;;;25.80